createdAt,value
2018-06-11T00:00:58.300Z,15.38
2018-06-11T00:03:27.522Z,15.33
2018-06-11T00:05:56.806Z,15.24
2018-06-11T00:08:26.027Z,15.22
2018-06-11T00:10:55.260Z,15.39
2018-06-11T00:13:24.491Z,15.26
2018-06-11T00:15:53.674Z,15.24
2018-06-11T00:18:22.888Z,15.20
2018-06-11T00:20:52.090Z,15.67
2018-06-11T00:23:21.316Z,15.84
2018-06-11T00:25:50.531Z,15.75
2018-06-11T00:28:19.763Z,15.64
2018-06-11T00:30:48.990Z,15.41
2018-06-11T00:33:18.220Z,15.50
2018-06-11T00:35:47.420Z,15.27
2018-06-11T00:38:16.647Z,15.18
2018-06-11T00:40:45.863Z,15.14
2018-06-11T00:43:16.362Z,15.09
2018-06-11T00:45:45.568Z,15.08
2018-06-11T00:48:14.798Z,15.07
2018-06-11T00:50:44.011Z,15.11
2018-06-11T00:53:13.246Z,15.06
2018-06-11T00:56:15.777Z,15.44
2018-06-11T00:58:45.090Z,15.41
2018-06-11T01:01:14.306Z,15.18
2018-06-11T01:03:43.531Z,15.17
2018-06-11T01:06:12.874Z,15.00
2018-06-11T01:16:50.614Z,14.94
2018-06-11T01:19:19.925Z,14.95
2018-06-11T01:21:49.151Z,15.00
2018-06-11T01:24:18.526Z,14.95
2018-06-11T01:26:47.723Z,14.48
2018-06-11T01:29:16.928Z,15.17
2018-06-11T01:31:46.160Z,15.19
2018-06-11T01:34:15.380Z,14.94
2018-06-11T01:36:44.606Z,14.87
2018-06-11T01:39:13.915Z,14.91
2018-06-11T01:41:42.985Z,15.15
2018-06-11T01:44:12.208Z,14.83
2018-06-11T01:46:41.455Z,14.67
2018-06-11T01:49:10.678Z,14.78
2018-06-11T01:51:39.918Z,14.62
2018-06-11T01:54:09.158Z,14.56
2018-06-11T01:56:38.383Z,14.51
2018-06-11T01:59:07.641Z,14.51
2018-06-11T02:01:36.943Z,14.53
2018-06-11T02:04:06.245Z,14.58
2018-06-11T02:06:35.449Z,14.65
2018-06-11T02:09:05.883Z,14.55
2018-06-11T02:11:35.387Z,14.51
2018-06-11T02:14:04.850Z,14.42
2018-06-11T02:16:34.050Z,14.32
2018-06-11T02:19:03.371Z,14.22
2018-06-11T02:21:32.583Z,14.16
2018-06-11T02:24:01.828Z,14.47
2018-06-11T02:26:31.018Z,14.39
2018-06-11T02:29:00.470Z,14.17
2018-06-11T02:31:30.497Z,14.12
2018-06-11T02:34:00.358Z,14.00
2018-06-11T02:36:29.597Z,13.93
2018-06-11T02:38:58.778Z,13.92
2018-06-11T02:41:28.137Z,13.92
2018-06-11T03:13:27.478Z,13.89
2018-06-11T03:18:32.763Z,13.62
2018-06-11T03:21:01.978Z,13.68
2018-06-11T03:23:31.195Z,13.72
2018-06-11T03:26:00.444Z,13.72
2018-06-11T03:28:29.670Z,13.74
2018-06-11T03:30:58.929Z,13.86
2018-06-11T03:33:28.181Z,13.83
2018-06-11T03:35:57.461Z,13.83
2018-06-11T03:38:26.672Z,13.87
2018-06-11T03:40:55.954Z,13.85
2018-06-11T03:43:25.162Z,13.88
2018-06-11T03:45:54.395Z,13.89
2018-06-11T03:48:23.597Z,13.84
2018-06-11T03:50:53.237Z,13.86
2018-06-11T03:53:22.465Z,13.90
2018-06-11T03:55:51.674Z,13.91
2018-06-11T03:58:20.905Z,13.91
2018-06-11T04:00:50.213Z,13.99
2018-06-11T04:03:19.419Z,14.13
2018-06-11T04:05:48.659Z,14.28
2018-06-11T04:08:18.034Z,14.36
2018-06-11T04:10:47.328Z,14.45
2018-06-11T04:13:16.475Z,14.92
2018-06-11T04:15:45.686Z,15.06
2018-06-11T04:18:14.954Z,15.27
2018-06-11T04:20:44.197Z,15.14
2018-06-11T04:23:13.403Z,14.84
2018-06-11T04:25:42.374Z,15.02
2018-06-11T04:28:11.590Z,15.18
2018-06-11T04:30:40.855Z,15.40
2018-06-11T04:33:10.019Z,15.55
2018-06-11T04:35:39.249Z,15.77
2018-06-11T04:38:08.472Z,15.94
2018-06-11T04:40:37.681Z,16.17
2018-06-11T04:43:06.922Z,16.39
2018-06-11T04:45:36.132Z,17.01
2018-06-11T04:48:05.334Z,18.43
2018-06-11T04:50:34.562Z,18.39
2018-06-11T04:53:03.789Z,18.42
2018-06-11T04:55:33.006Z,20.76
2018-06-11T04:58:02.203Z,23.56
2018-06-11T05:00:31.406Z,25.10
2018-06-11T05:03:00.624Z,25.25
2018-06-11T05:05:29.850Z,26.27
2018-06-11T05:07:59.068Z,26.99
2018-06-11T05:10:28.282Z,26.95
2018-06-11T05:12:57.508Z,26.09
2018-06-11T05:15:26.718Z,25.84
2018-06-11T05:17:55.958Z,24.13
2018-06-11T05:20:25.187Z,25.50
2018-06-11T05:22:54.516Z,26.94
2018-06-11T05:25:23.742Z,28.80
2018-06-11T05:27:53.011Z,29.89
2018-06-11T05:30:22.227Z,29.66
2018-06-11T05:32:51.609Z,29.21
2018-06-11T05:35:20.860Z,30.38
2018-06-11T05:37:50.068Z,29.51
2018-06-11T05:40:19.297Z,30.67
2018-06-11T05:42:48.509Z,31.27
2018-06-11T05:45:17.694Z,32.31
2018-06-11T05:47:46.918Z,32.20
2018-06-11T05:50:16.118Z,33.14
2018-06-11T05:52:45.338Z,33.14
2018-06-11T05:55:14.539Z,32.73
2018-06-11T05:57:43.778Z,31.31
2018-06-11T06:00:12.982Z,32.35
2018-06-11T06:02:42.268Z,32.64
2018-06-11T06:05:11.474Z,33.10
2018-06-11T06:07:40.748Z,32.41
2018-06-11T06:10:10.070Z,32.54
2018-06-11T06:12:39.295Z,32.97
2018-06-11T06:15:08.516Z,32.59
2018-06-11T06:17:37.599Z,33.12
2018-06-11T06:20:07.652Z,33.08
2018-06-11T06:22:36.847Z,33.48
2018-06-11T06:25:06.270Z,33.83
2018-06-11T06:27:35.454Z,35.73
2018-06-11T06:30:04.947Z,34.21
2018-06-11T06:32:34.267Z,32.86
2018-06-11T06:35:03.483Z,34.00
2018-06-11T06:37:32.710Z,35.02
2018-06-11T06:40:01.906Z,35.78
2018-06-11T06:42:31.203Z,32.89
2018-06-11T06:45:00.412Z,33.17
2018-06-11T06:47:29.634Z,33.07
2018-06-11T06:49:58.859Z,34.09
2018-06-11T06:52:28.087Z,34.48
2018-06-11T06:54:57.298Z,34.87
2018-06-11T06:57:26.491Z,33.25
2018-06-11T06:59:55.710Z,34.56
2018-06-11T07:02:25.034Z,33.71
2018-06-11T07:04:54.238Z,35.48
2018-06-11T07:07:23.453Z,36.56
2018-06-11T07:09:52.660Z,35.89
2018-06-11T07:12:21.871Z,36.27
2018-06-11T07:14:51.081Z,38.00
2018-06-11T07:17:20.316Z,37.66
2018-06-11T07:19:49.549Z,36.69
2018-06-11T07:22:18.762Z,37.09
2018-06-11T07:24:47.985Z,37.39
2018-06-11T07:27:17.190Z,36.64
2018-06-11T07:29:46.403Z,37.81
2018-06-11T07:32:15.610Z,37.97
2018-06-11T07:34:44.818Z,38.01
2018-06-11T07:37:14.048Z,38.02
2018-06-11T07:39:43.248Z,38.76
2018-06-11T07:42:12.450Z,38.85
2018-06-11T07:44:41.668Z,39.55
2018-06-11T07:47:10.854Z,39.52
2018-06-11T07:49:40.071Z,38.81
2018-06-11T07:52:09.293Z,39.25
2018-06-11T07:54:38.511Z,39.77
2018-06-11T07:57:07.731Z,40.72
2018-06-11T07:59:36.960Z,40.82
2018-06-11T08:02:06.198Z,40.23
2018-06-11T08:04:35.411Z,38.76
2018-06-11T08:07:04.638Z,39.79
2018-06-11T08:09:33.878Z,37.38
2018-06-11T08:12:03.079Z,39.05
2018-06-11T08:14:32.286Z,40.38
2018-06-11T08:17:01.499Z,41.76
2018-06-11T08:19:30.710Z,38.46
2018-06-11T08:21:59.927Z,37.24
2018-06-11T08:24:29.136Z,39.51
2018-06-11T08:26:58.375Z,37.94
2018-06-11T08:29:27.590Z,39.53
2018-06-11T08:31:56.798Z,39.17
2018-06-11T08:34:26.035Z,38.41
2018-06-11T08:36:55.269Z,38.90
2018-06-11T08:39:24.517Z,40.03
2018-06-11T08:41:53.830Z,41.02
2018-06-11T08:44:23.114Z,40.88
2018-06-11T08:46:52.328Z,40.28
2018-06-11T08:49:21.536Z,39.90
2018-06-11T08:51:50.833Z,38.59
2018-06-11T08:54:20.122Z,38.89
2018-06-11T08:56:49.534Z,38.04
2018-06-11T08:59:18.739Z,40.08
2018-06-11T09:01:47.954Z,40.67
2018-06-11T09:04:17.159Z,40.25
2018-06-11T09:06:46.390Z,40.53
2018-06-11T09:09:15.586Z,38.57
2018-06-11T09:11:44.807Z,38.71
2018-06-11T09:14:14.022Z,38.65
2018-06-11T09:16:43.236Z,37.62
2018-06-11T09:19:12.436Z,36.22
2018-06-11T09:21:41.663Z,36.41
2018-06-11T09:24:10.874Z,38.45
2018-06-11T09:26:40.075Z,37.81
2018-06-11T09:29:09.296Z,37.53
2018-06-11T09:31:38.530Z,38.02
2018-06-11T09:34:07.762Z,38.23
2018-06-11T09:36:37.096Z,36.76
2018-06-11T09:39:08.714Z,38.38
2018-06-11T09:41:37.958Z,38.38
2018-06-11T09:44:07.229Z,37.64
2018-06-11T09:46:36.396Z,37.38
2018-06-11T09:49:05.850Z,38.50
2018-06-11T09:51:35.169Z,39.39
2018-06-11T09:54:04.390Z,38.02
2018-06-11T09:56:33.694Z,38.10
2018-06-11T09:59:03.010Z,37.75
2018-06-11T10:01:32.218Z,38.50
2018-06-11T10:04:01.502Z,38.46
2018-06-11T10:06:30.777Z,38.48
2018-06-11T10:09:00.079Z,38.48
2018-06-11T10:11:29.334Z,37.01
2018-06-11T10:13:58.542Z,33.33
2018-06-11T10:16:27.773Z,33.92
2018-06-11T10:18:57.075Z,35.79
2018-06-11T10:21:26.305Z,37.19
2018-06-11T10:23:55.526Z,36.15
2018-06-11T10:26:24.757Z,36.73
2018-06-11T10:28:53.822Z,36.28
2018-06-11T10:31:23.021Z,36.36
2018-06-11T10:33:52.234Z,35.15
2018-06-11T10:36:21.438Z,36.76
2018-06-11T10:38:50.630Z,35.26
2018-06-11T10:41:19.844Z,38.24
2018-06-11T10:43:49.046Z,37.46
2018-06-11T10:46:18.256Z,36.95
2018-06-11T10:48:47.488Z,37.79
2018-06-11T10:51:16.705Z,37.30
2018-06-11T10:53:46.066Z,37.59
2018-06-11T10:56:15.262Z,36.88
2018-06-11T10:58:44.454Z,37.50
2018-06-11T11:01:13.666Z,37.59
2018-06-11T11:03:42.882Z,36.89
2018-06-11T11:06:12.111Z,36.39
2018-06-11T11:08:41.363Z,36.37
2018-06-11T11:11:10.539Z,33.29
2018-06-11T11:13:39.765Z,33.69
2018-06-11T11:16:08.980Z,33.62
2018-06-11T11:18:38.194Z,32.57
2018-06-11T11:21:08.344Z,35.52
2018-06-11T11:23:37.579Z,35.71
2018-06-11T11:26:06.813Z,35.29
2018-06-11T11:28:35.995Z,35.11
2018-06-11T11:31:05.195Z,33.86
2018-06-11T11:33:34.625Z,33.66
2018-06-11T11:36:03.817Z,32.20
2018-06-11T11:38:33.039Z,31.37
2018-06-11T11:41:02.267Z,31.71
2018-06-11T11:43:31.510Z,32.27
2018-06-11T11:46:00.723Z,32.77
2018-06-11T11:48:29.937Z,33.37
2018-06-11T11:50:59.174Z,31.16
2018-06-11T11:53:28.405Z,32.92
2018-06-11T11:55:57.607Z,32.09
2018-06-11T11:58:26.831Z,32.87
2018-06-11T12:00:56.051Z,33.62
2018-06-11T12:03:25.294Z,34.59
2018-06-11T12:05:54.735Z,32.66
2018-06-11T12:08:23.949Z,32.88
2018-06-11T12:10:53.153Z,31.85
2018-06-11T12:13:22.375Z,31.53
2018-06-11T12:15:51.582Z,32.53
2018-06-11T12:18:20.798Z,32.11
2018-06-11T12:20:50.919Z,32.08
2018-06-11T12:23:20.170Z,31.63
2018-06-11T12:25:49.441Z,31.30
2018-06-11T12:28:18.685Z,30.85
2018-06-11T12:30:47.901Z,30.99
2018-06-11T12:33:17.118Z,30.02
2018-06-11T12:35:46.333Z,29.61
2018-06-11T12:38:15.569Z,29.39
2018-06-11T12:40:44.858Z,29.67
2018-06-11T12:43:14.122Z,28.89
2018-06-11T12:45:43.363Z,29.24
2018-06-11T12:48:12.591Z,30.12
2018-06-11T12:50:41.805Z,30.07
2018-06-11T12:53:11.027Z,29.60
2018-06-11T12:55:40.263Z,29.02
2018-06-11T12:58:09.695Z,28.86
2018-06-11T13:00:38.909Z,28.71
2018-06-11T13:03:08.122Z,28.20
2018-06-11T13:05:37.343Z,27.72
2018-06-11T13:08:07.715Z,27.35
2018-06-11T13:10:36.924Z,27.28
2018-06-11T13:13:06.258Z,27.21
2018-06-11T13:15:35.470Z,27.05
2018-06-11T13:18:04.661Z,26.89
2018-06-11T13:20:33.876Z,26.66
2018-06-11T13:23:03.096Z,26.39
2018-06-11T13:25:32.322Z,26.28
2018-06-11T13:28:01.538Z,26.13
2018-06-11T13:30:30.753Z,26.33
2018-06-11T13:32:59.974Z,26.67
2018-06-11T13:35:29.186Z,26.34
2018-06-11T13:37:58.394Z,25.91
2018-06-11T13:40:27.600Z,25.63
2018-06-11T13:42:56.851Z,25.32
2018-06-11T13:45:26.086Z,25.08
2018-06-11T13:47:55.127Z,25.51
2018-06-11T13:50:31.243Z,25.27
2018-06-11T13:53:00.488Z,24.92
2018-06-11T13:55:29.750Z,25.04
2018-06-11T13:57:58.970Z,25.63
2018-06-11T14:00:28.411Z,25.89
2018-06-11T14:02:57.628Z,26.41
2018-06-11T14:05:26.851Z,26.04
2018-06-11T14:07:56.069Z,26.14
2018-06-11T14:10:25.294Z,26.59
2018-06-11T14:12:54.524Z,27.26
2018-06-11T14:15:23.741Z,27.73
2018-06-11T14:17:52.946Z,28.29
2018-06-11T14:20:22.182Z,28.54
2018-06-11T14:22:51.391Z,29.10
2018-06-11T14:25:20.600Z,29.64
2018-06-11T14:27:49.804Z,29.98
2018-06-11T14:30:19.026Z,30.24
2018-06-11T14:32:48.235Z,30.20
2018-06-11T14:35:17.456Z,29.63
2018-06-11T14:37:46.671Z,29.11
2018-06-11T14:40:15.895Z,28.62
2018-06-11T14:42:45.106Z,28.25
2018-06-11T14:45:14.404Z,27.84
2018-06-11T14:47:43.609Z,27.50
2018-06-11T14:50:12.698Z,27.25
2018-06-11T14:52:41.956Z,26.81
2018-06-11T14:55:11.171Z,26.79
2018-06-11T14:57:40.392Z,26.76
2018-06-11T15:00:09.610Z,26.79
2018-06-11T15:02:38.810Z,26.30
2018-06-11T15:05:08.025Z,25.86
2018-06-11T15:07:37.243Z,25.73
2018-06-11T15:10:06.461Z,25.70
2018-06-11T15:12:35.662Z,26.18
2018-06-11T15:15:04.898Z,26.48
2018-06-11T15:17:34.113Z,26.30
2018-06-11T15:20:03.351Z,25.91
2018-06-11T15:22:32.581Z,25.80
2018-06-11T15:25:01.807Z,26.16
2018-06-11T15:27:31.110Z,25.20
2018-06-11T15:30:00.323Z,25.12
2018-06-11T15:32:29.603Z,25.14
2018-06-11T15:34:58.811Z,25.00
2018-06-11T15:37:28.163Z,25.06
2018-06-11T15:39:57.442Z,25.74
2018-06-11T15:42:26.720Z,25.74
2018-06-11T15:44:55.947Z,26.24
2018-06-11T15:47:25.154Z,26.86
2018-06-11T15:49:54.409Z,27.15
2018-06-11T15:52:23.618Z,27.24
2018-06-11T15:54:52.892Z,27.25
2018-06-11T15:57:22.126Z,27.11
2018-06-11T15:59:51.347Z,27.23
2018-06-11T16:02:20.579Z,27.07
2018-06-11T16:04:49.853Z,26.86
2018-06-11T16:07:19.157Z,26.61
2018-06-11T16:09:48.359Z,26.53
2018-06-11T16:12:17.839Z,26.58
2018-06-11T16:14:47.078Z,26.49
2018-06-11T16:17:16.402Z,26.05
2018-06-11T16:19:45.630Z,25.88
2018-06-11T16:22:14.850Z,25.63
2018-06-11T16:24:44.173Z,25.28
2018-06-11T16:27:13.412Z,25.14
2018-06-11T16:29:42.647Z,25.23
2018-06-11T16:32:11.865Z,25.20
2018-06-11T16:34:41.183Z,25.24
2018-06-11T16:37:10.416Z,24.92
2018-06-11T16:39:39.694Z,24.93
2018-06-11T16:42:09.456Z,25.22
2018-06-11T16:44:38.664Z,25.27
2018-06-11T16:47:07.890Z,25.18
2018-06-11T16:49:37.194Z,24.68
2018-06-11T16:52:06.544Z,24.28
2018-06-11T16:54:35.805Z,24.39
2018-06-11T16:57:05.044Z,24.35
2018-06-11T16:59:40.658Z,24.48
2018-06-11T17:02:09.894Z,24.55
2018-06-11T17:04:39.164Z,24.95
2018-06-11T17:07:08.387Z,24.65
2018-06-11T17:09:37.691Z,24.69
2018-06-11T17:12:06.936Z,24.95
2018-06-11T17:14:36.158Z,24.87
2018-06-11T17:17:05.501Z,24.70
2018-06-11T17:19:34.731Z,24.66
2018-06-11T17:22:03.933Z,24.29
2018-06-11T17:24:33.169Z,24.18
2018-06-11T17:27:02.381Z,23.80
2018-06-11T17:29:31.642Z,23.89
2018-06-11T17:32:00.677Z,23.70
2018-06-11T17:34:29.900Z,23.52
2018-06-11T17:36:59.106Z,23.67
2018-06-11T17:39:28.329Z,23.39
2018-06-11T17:41:57.554Z,23.15
2018-06-11T17:44:26.517Z,23.37
2018-06-11T17:46:55.766Z,23.33
2018-06-11T17:49:24.742Z,23.24
2018-06-11T17:51:53.968Z,23.11
2018-06-11T17:54:23.203Z,23.01
2018-06-11T17:56:52.392Z,22.84
2018-06-11T17:59:21.719Z,22.64
2018-06-11T18:01:50.930Z,22.24
2018-06-11T18:04:20.312Z,22.25
2018-06-11T18:06:49.482Z,21.96
2018-06-11T18:09:18.707Z,21.88
2018-06-11T18:11:47.947Z,21.65
2018-06-11T18:14:17.157Z,21.55
2018-06-11T18:16:46.371Z,21.52
2018-06-11T18:19:15.602Z,21.46
2018-06-11T18:21:44.827Z,21.36
2018-06-11T18:24:14.319Z,21.29
2018-06-11T18:26:43.527Z,21.29
2018-06-11T18:29:12.717Z,21.25
2018-06-11T18:31:42.938Z,21.17
2018-06-11T18:34:12.173Z,21.11
2018-06-11T18:36:41.366Z,21.15
2018-06-11T18:39:10.576Z,21.04
2018-06-11T18:41:39.789Z,21.18
2018-06-11T18:44:09.019Z,21.31
2018-06-11T18:46:38.232Z,21.21
2018-06-11T18:49:07.428Z,21.11
2018-06-11T18:51:36.646Z,21.21
2018-06-11T18:54:05.870Z,20.91
2018-06-11T18:56:35.104Z,21.14
2018-06-11T18:59:04.343Z,21.06
2018-06-11T19:01:33.540Z,20.91
2018-06-11T19:04:02.812Z,20.88
2018-06-11T19:06:32.032Z,20.81
2018-06-11T19:09:01.322Z,20.84
2018-06-11T19:11:30.521Z,21.02
2018-06-11T19:13:59.759Z,20.94
2018-06-11T19:16:28.971Z,20.95
2018-06-11T19:18:58.271Z,21.08
2018-06-11T19:21:27.463Z,21.00
2018-06-11T19:23:56.686Z,20.94
2018-06-11T19:26:25.922Z,20.76
2018-06-11T19:28:55.138Z,20.80
2018-06-11T19:31:24.366Z,20.82
2018-06-11T19:33:53.567Z,20.83
2018-06-11T19:36:22.819Z,20.72
2018-06-11T19:38:52.037Z,20.73
2018-06-11T19:41:21.503Z,20.84
2018-06-11T19:43:50.733Z,20.73
2018-06-11T19:46:19.945Z,20.70
2018-06-11T19:48:49.268Z,20.48
2018-06-11T19:51:18.581Z,20.39
2018-06-11T19:53:47.811Z,20.48
2018-06-11T19:56:17.046Z,20.26
2018-06-11T19:58:46.265Z,20.48
2018-06-11T20:01:15.507Z,20.26
2018-06-11T20:03:44.754Z,20.08
2018-06-11T20:06:13.991Z,20.12
2018-06-11T20:08:43.234Z,20.03
2018-06-11T20:11:12.439Z,20.12
2018-06-11T20:13:41.643Z,20.09
2018-06-11T20:16:10.884Z,20.19
2018-06-11T20:18:40.088Z,20.12
2018-06-11T20:21:09.323Z,20.05
2018-06-11T20:23:38.521Z,20.09
2018-06-11T20:26:07.754Z,20.19
2018-06-11T20:28:36.962Z,20.07
2018-06-11T20:31:06.299Z,20.06
2018-06-11T20:33:35.510Z,19.92
2018-06-11T20:36:04.806Z,19.90
2018-06-11T20:38:34.035Z,19.88
2018-06-11T20:41:03.263Z,19.91
2018-06-11T20:43:32.480Z,19.75
2018-06-11T20:46:01.706Z,19.76
2018-06-11T20:48:31.000Z,19.76
2018-06-11T20:51:00.226Z,19.67
2018-06-11T20:53:29.455Z,19.70
2018-06-11T20:55:59.102Z,19.60
2018-06-11T20:58:28.360Z,19.59
2018-06-11T21:00:57.598Z,19.58
2018-06-11T21:03:26.910Z,19.51
2018-06-11T21:05:56.163Z,19.50
2018-06-11T21:08:25.390Z,19.52
2018-06-11T21:10:54.634Z,19.49
2018-06-11T21:13:23.855Z,19.50
2018-06-11T21:15:53.096Z,19.48
2018-06-11T21:18:22.342Z,19.52
2018-06-11T21:20:51.930Z,19.44
2018-06-11T21:23:21.184Z,19.42
2018-06-11T21:25:51.454Z,19.17
2018-06-11T21:28:20.790Z,19.26
2018-06-11T21:30:50.006Z,19.18
2018-06-11T21:33:19.239Z,19.20
2018-06-11T21:35:48.518Z,19.19
2018-06-11T21:38:17.723Z,19.11
2018-06-11T21:40:46.930Z,19.01
2018-06-11T21:43:16.162Z,18.90
2018-06-11T21:45:45.359Z,18.73
2018-06-11T21:48:14.573Z,18.86
2018-06-11T21:50:43.792Z,18.87
2018-06-11T21:53:13.015Z,18.83
2018-06-11T21:55:42.234Z,18.80
2018-06-11T21:58:11.462Z,18.62
2018-06-11T22:00:40.739Z,18.57
2018-06-11T22:03:10.108Z,18.42
2018-06-11T22:05:39.317Z,18.54
2018-06-11T22:08:08.525Z,18.54
2018-06-11T22:10:37.727Z,18.46
2018-06-11T22:13:06.964Z,18.54
2018-06-11T22:15:36.181Z,18.10
2018-06-11T22:18:05.461Z,18.29
2018-06-11T22:20:34.673Z,18.20
2018-06-11T22:23:03.901Z,18.31
2018-06-11T22:25:32.859Z,18.08
2018-06-11T22:28:02.152Z,18.12
2018-06-11T22:30:37.876Z,17.69
2018-06-11T22:33:07.084Z,17.46
2018-06-11T22:35:36.319Z,17.27
2018-06-11T22:38:05.879Z,17.45
2018-06-11T22:40:35.079Z,17.36
2018-06-11T22:43:04.466Z,17.03
2018-06-11T22:45:33.665Z,16.87
2018-06-11T22:48:02.890Z,16.77
2018-06-11T22:50:32.170Z,16.70
2018-06-11T22:53:01.407Z,16.63
2018-06-11T22:55:30.616Z,16.55
2018-06-11T22:57:59.845Z,16.50
2018-06-11T23:00:33.198Z,16.73
2018-06-11T23:03:02.716Z,16.41
2018-06-11T23:05:32.051Z,16.41
2018-06-11T23:08:01.296Z,16.26
2018-06-11T23:10:30.287Z,16.19
2018-06-11T23:12:59.561Z,16.15
2018-06-11T23:15:29.691Z,16.10
2018-06-11T23:17:58.918Z,16.01
2018-06-11T23:20:27.957Z,16.02
2018-06-11T23:22:57.227Z,16.02
2018-06-11T23:25:26.288Z,16.34
2018-06-11T23:27:55.512Z,15.95
2018-06-11T23:30:24.721Z,16.04
2018-06-11T23:32:53.942Z,15.84
2018-06-11T23:35:23.018Z,15.92
2018-06-11T23:37:52.230Z,15.81
2018-06-11T23:40:21.439Z,15.69
2018-06-11T23:42:50.805Z,15.48
2018-06-11T23:45:20.011Z,15.46
2018-06-11T23:47:49.219Z,15.89
2018-06-11T23:50:18.436Z,15.56
2018-06-11T23:52:47.662Z,15.52
2018-06-11T23:55:16.869Z,15.76
2018-06-11T23:57:46.079Z,15.70
